Time;durP1;ratioP1;P1;durP2;ratioP2;P2;SDS_P1;SDS_P2;PMS_P1;PMS_P2;Temp;Humidity;BMP_temperature;BMP_pressure;BME280_temperature;BME280_humidity;BME280_pressure;Samples;Min_cycle;Max_cycle;Signal;HPM_P1;HPM_P2
2023/10/09 00:03:03;;;;;;;5.32;4.25;;;14.40;70.20;;;;;;5056185;28;20035;-69
2023/10/09 00:08:32;;;;;;;5.05;4.55;;;14.40;70.30;;;;;;5055664;28;20068;-77
2023/10/09 00:11:13;;;;;;;5.85;4.65;;;14.30;70.20;;;;;;5054401;28;20032;-75
2023/10/09 00:13:49;;;;;;;7.00;5.00;;;14.30;70.20;;;;;;5051200;28;20123;-72
2023/10/09 00:16:16;;;;;;;8.02;5.55;;;14.30;70.30;;;;;;5052616;28;20602;-70
2023/10/09 00:18:46;;;;;;;9.40;5.75;;;14.30;70.30;;;;;;5051137;28;20045;-69
2023/10/09 00:21:23;;;;;;;6.43;5.10;;;14.30;70.40;;;;;;5052824;28;20194;-75
2023/10/09 00:23:53;;;;;;;6.68;5.47;;;14.20;70.30;;;;;;5061822;28;20024;-70
2023/10/09 00:26:22;;;;;;;6.97;5.35;;;14.20;70.30;;;;;;5058112;28;20056;-76
2023/10/09 00:28:52;;;;;;;7.65;6.20;;;14.20;70.30;;;;;;5055959;28;20028;-74
2023/10/09 00:31:33;;;;;;;7.28;6.43;;;14.20;70.40;;;;;;5060224;28;20040;-72
2023/10/09 00:34:05;;;;;;;8.75;7.35;;;14.20;70.50;;;;;;5074486;28;20039;-70
2023/10/09 00:36:49;;;;;;;7.32;6.63;;;14.20;70.50;;;;;;5071927;28;20039;-72
2023/10/09 00:39:33;;;;;;;12.77;8.25;;;14.10;70.40;;;;;;5078272;28;20041;-73
2023/10/09 00:42:00;;;;;;;12.55;8.07;;;14.10;70.50;;;;;;5066996;28;20082;-66
2023/10/09 00:44:37;;;;;;;10.57;8.15;;;14.20;70.60;;;;;;5064911;28;20048;-71
2023/10/09 00:47:20;;;;;;;10.10;7.50;;;14.10;70.60;;;;;;5053923;28;20524;-72
2023/10/09 00:50:21;;;;;;;9.82;8.13;;;14.10;70.60;;;;;;5063714;28;20317;-70
2023/10/09 00:53:04;;;;;;;10.52;8.48;;;14.10;70.80;;;;;;5053909;28;20032;-70
2023/10/09 00:55:45;;;;;;;10.82;8.75;;;14.10;70.80;;;;;;5047777;28;20040;-67
2023/10/09 00:58:23;;;;;;;9.18;7.85;;;14.10;70.80;;;;;;5057989;28;20024;-68
2023/10/09 01:00:52;;;;;;;10.38;7.82;;;14.10;70.90;;;;;;5051580;28;20040;-71
2023/10/09 01:03:20;;;;;;;9.05;7.55;;;14.10;70.90;;;;;;5056608;28;20043;-73
2023/10/09 01:08:28;;;;;;;12.07;10.80;;;14.10;71.10;;;;;;5056349;28;20051;-69
2023/10/09 01:11:10;;;;;;;10.00;8.27;;;14.20;71.30;;;;;;5053082;28;20028;-70
2023/10/09 01:13:52;;;;;;;9.88;8.57;;;14.10;71.20;;;;;;5054939;28;20546;-76
2023/10/09 01:16:21;;;;;;;9.63;8.43;;;14.10;71.30;;;;;;5052759;28;20182;-76
2023/10/09 01:18:50;;;;;;;11.30;8.55;;;14.10;71.30;;;;;;5057274;28;20745;-78
2023/10/09 01:21:18;;;;;;;11.27;9.13;;;14.10;71.40;;;;;;5054482;28;20058;-68
2023/10/09 01:24:06;;;;;;;9.77;8.27;;;14.10;71.50;;;;;;5059452;28;20035;-70
2023/10/09 01:26:44;;;;;;;10.98;9.50;;;14.10;71.50;;;;;;5054774;28;20373;-70
2023/10/09 01:29:19;;;;;;;13.60;9.15;;;14.10;71.60;;;;;;5052092;28;20020;-74
2023/10/09 01:31:56;;;;;;;13.60;9.40;;;14.10;71.70;;;;;;5043459;28;20067;-78
2023/10/09 01:37:11;;;;;;;;;;;14.10;71.90;;;;;;5057810;28;20040;-75
2023/10/09 01:39:42;;;;;;;12.02;8.73;;;14.10;71.80;;;;;;5063376;28;19919;-77
2023/10/09 01:42:09;;;;;;;12.60;9.18;;;14.00;71.50;;;;;;5056405;28;20547;-77
2023/10/09 01:44:42;;;;;;;10.95;8.80;;;14.00;71.60;;;;;;5059480;28;20268;-74
2023/10/09 01:47:13;;;;;;;11.93;10.23;;;14.00;71.70;;;;;;5052693;28;20041;-79
2023/10/09 01:49:43;;;;;;;15.63;9.02;;;14.00;71.90;;;;;;5052290;28;20135;-76
2023/10/09 01:52:16;;;;;;;9.80;8.80;;;14.00;72.00;;;;;;5060007;28;20134;-72
2023/10/09 01:54:49;;;;;;;;;;;14.00;72.10;;;;;;5057142;28;20426;-74
2023/10/09 01:57:25;;;;;;;11.63;8.95;;;14.00;72.10;;;;;;5051256;28;19935;-76
2023/10/09 01:59:54;;;;;;;10.32;9.25;;;13.90;71.80;;;;;;5058115;28;20511;-77
2023/10/09 02:02:30;;;;;;;13.07;9.93;;;13.90;71.90;;;;;;5049186;28;20033;-77
2023/10/09 02:07:52;;;;;;;;;;;13.90;72.20;;;;;;5050608;28;20029;-75
2023/10/09 02:10:31;;;;;;;10.15;9.02;;;13.90;72.20;;;;;;5050204;28;19913;-71
2023/10/09 02:13:09;;;;;;;12.15;9.50;;;13.90;72.10;;;;;;5057154;28;20029;-76
2023/10/09 02:21:12;;;;;;;9.98;8.98;;;13.80;72.30;;;;;;5053749;28;20166;-71
2023/10/09 02:23:40;;;;;;;11.82;9.10;;;13.80;72.50;;;;;;5055444;28;20036;-72
2023/10/09 02:26:08;;;;;;;11.32;9.95;;;13.80;72.50;;;;;;5041356;28;20044;-72
2023/10/09 02:28:35;;;;;;;11.55;9.85;;;13.80;72.60;;;;;;5049467;28;20531;-73
2023/10/09 02:31:10;;;;;;;11.70;8.75;;;13.80;73.20;;;;;;5058648;28;20036;-73
2023/10/09 02:33:38;;;;;;;13.80;9.18;;;13.80;72.80;;;;;;5059936;28;20029;-69
2023/10/09 02:36:06;;;;;;;11.27;9.40;;;13.80;72.80;;;;;;5054246;28;20158;-73
2023/10/09 02:38:42;;;;;;;11.40;8.95;;;13.80;72.80;;;;;;5056148;28;20021;-70
2023/10/09 02:43:47;;;;;;;11.65;9.27;;;13.80;72.90;;;;;;5060681;28;20095;-70
2023/10/09 02:46:17;;;;;;;10.55;9.32;;;13.70;72.90;;;;;;5057653;28;20247;-73
2023/10/09 02:48:51;;;;;;;11.25;10.02;;;13.70;72.90;;;;;;5048782;28;20028;-72
2023/10/09 02:51:32;;;;;;;13.35;9.70;;;13.70;73.00;;;;;;5054652;28;20052;-73
2023/10/09 02:54:48;;;;;;;12.75;10.13;;;13.70;73.00;;;;;;5053480;28;20056;-72
2023/10/09 02:57:27;;;;;;;11.68;8.93;;;13.70;73.10;;;;;;5039907;28;20032;-74
2023/10/09 02:59:44;;;;;;;13.20;10.43;;;13.70;73.20;;;;;;5045106;28;20764;-73
2023/10/09 03:02:11;;;;;;;13.25;11.13;;;13.70;73.20;;;;;;5051905;28;20166;-71
2023/10/09 03:04:38;;;;;;;14.75;10.60;;;13.70;73.40;;;;;;5062308;28;20451;-71
2023/10/09 03:07:05;;;;;;;13.48;9.93;;;13.70;73.50;;;;;;5051525;28;20032;-71
2023/10/09 03:09:32;;;;;;;12.65;10.73;;;13.70;73.60;;;;;;5057088;28;20044;-72
2023/10/09 03:12:03;;;;;;;12.23;10.48;;;13.70;73.70;;;;;;5058148;28;20062;-70
2023/10/09 03:14:31;;;;;;;14.55;10.85;;;13.70;73.80;;;;;;5051324;28;20476;-69
2023/10/09 03:16:58;;;;;;;13.75;11.23;;;13.70;73.90;;;;;;5055949;28;20142;-70
2023/10/09 03:19:26;;;;;;;13.00;11.57;;;13.70;74.00;;;;;;5059040;28;20098;-70
2023/10/09 03:21:52;;;;;;;15.77;13.20;;;13.70;74.10;;;;;;5053997;28;20121;-74
2023/10/09 03:24:19;;;;;;;14.95;12.13;;;13.70;74.10;;;;;;5069630;28;20032;-75
2023/10/09 03:26:45;;;;;;;15.50;12.82;;;13.70;74.20;;;;;;5054857;28;20047;-71
2023/10/09 03:29:11;;;;;;;17.05;14.00;;;13.80;74.40;;;;;;5061526;28;20059;-77
2023/10/09 03:31:38;;;;;;;18.05;14.68;;;13.80;74.50;;;;;;5058482;28;20468;-71
2023/10/09 03:34:05;;;;;;;19.15;15.98;;;13.80;74.60;;;;;;5059932;28;20028;-77
2023/10/09 03:36:37;;;;;;;19.25;16.08;;;13.80;74.60;;;;;;5060396;28;20051;-72
2023/10/09 03:39:33;;;;;;;21.65;16.30;;;13.90;74.90;;;;;;5054523;28;20336;-67
2023/10/09 03:41:59;;;;;;;21.55;17.30;;;13.90;75.50;;;;;;5055168;28;20237;-70
2023/10/09 03:44:28;;;;;;;23.50;18.45;;;13.90;74.90;;;;;;5060668;28;20618;-71
2023/10/09 03:46:55;;;;;;;25.98;20.35;;;14.00;75.20;;;;;;5056701;28;20506;-70
2023/10/09 03:49:26;;;;;;;24.80;21.00;;;14.00;75.30;;;;;;5054629;28;20033;-74
2023/10/09 03:51:52;;;;;;;22.17;19.65;;;14.10;75.60;;;;;;5060402;28;20024;-72
2023/10/09 03:54:20;;;;;;;28.83;24.20;;;14.10;75.60;;;;;;5047381;28;20264;-74
2023/10/09 03:56:50;;;;;;;29.90;23.23;;;14.20;75.90;;;;;;5059381;28;20036;-71
2023/10/09 03:59:21;;;;;;;26.42;23.15;;;14.20;76.10;;;;;;5052824;28;20145;-75
2023/10/09 04:01:50;;;;;;;25.98;22.42;;;14.20;76.20;;;;;;5056322;28;20063;-68
2023/10/09 04:04:17;;;;;;;29.77;25.70;;;14.30;76.50;;;;;;5060836;28;20032;-66
2023/10/09 04:06:43;;;;;;;29.98;24.33;;;14.30;76.60;;;;;;5055198;28;20033;-69
2023/10/09 04:14:35;;;;;;;29.55;25.00;;;14.40;77.20;;;;;;5055812;28;20044;-71
2023/10/09 04:17:32;;;;;;;29.48;24.85;;;14.50;77.40;;;;;;5058997;28;20520;-72
2023/10/09 04:23:35;;;;;;;34.33;28.13;;;14.60;77.70;;;;;;5057388;28;20539;-74
2023/10/09 04:25:29;;;;;;;28.17;24.55;;;14.60;77.80;;;;;;5044922;28;20036;-68
2023/10/09 04:28:08;;;;;;;32.05;26.73;;;14.70;78.00;;;;;;5058360;28;20034;-74
2023/10/09 04:30:58;;;;;;;32.55;26.10;;;14.70;78.10;;;;;;5055275;28;20070;-73
2023/10/09 04:36:22;;;;;;;34.75;28.20;;;14.80;78.90;;;;;;5057738;28;20392;-74
2023/10/09 04:38:55;;;;;;;31.27;26.98;;;14.80;78.50;;;;;;5057213;28;20024;-73
2023/10/09 04:41:27;;;;;;;31.17;27.35;;;14.90;78.70;;;;;;5055807;28;20060;-74
2023/10/09 04:44:59;;;;;;;32.60;28.13;;;14.90;78.80;;;;;;5053891;28;20496;-69
2023/10/09 04:47:18;;;;;;;36.67;29.83;;;15.00;79.10;;;;;;5031640;28;20057;-78
2023/10/09 04:57:46;;;;;;;33.17;27.83;;;15.10;79.40;;;;;;5082594;28;20372;-70
2023/10/09 05:02:56;;;;;;;31.95;26.48;;;15.20;79.90;;;;;;5072331;28;20027;-69
2023/10/09 05:16:19;;;;;;;34.42;28.02;;;15.30;80.30;;;;;;5054585;28;20034;-73
2023/10/09 05:19:06;;;;;;;;;;;15.40;80.80;;;;;;5071741;28;20029;-69
2023/10/09 05:21:47;;;;;;;33.47;26.90;;;15.40;80.50;;;;;;5060590;28;19909;-73
2023/10/09 05:32:03;;;;;;;31.88;25.58;;;15.40;80.60;;;;;;5057914;28;19963;-76
2023/10/09 05:37:17;;;;;;;34.53;26.65;;;15.40;80.50;;;;;;5058180;28;20032;-66
2023/10/09 05:47:54;;;;;;;30.67;25.90;;;15.50;81.20;;;;;;5054995;28;20029;-71
2023/10/09 06:03:53;;;;;;;30.58;26.42;;;15.60;81.60;;;;;;5019504;28;20740;-73
2023/10/09 06:09:52;;;;;;;29.45;26.27;;;15.60;81.70;;;;;;5022601;28;20041;-76
2023/10/09 06:12:33;;;;;;;34.65;27.17;;;15.60;81.70;;;;;;5018877;28;20473;-68
2023/10/09 06:14:49;;;;;;;29.20;26.00;;;15.60;81.70;;;;;;5014450;28;20099;-69
2023/10/09 06:17:23;;;;;;;30.58;25.65;;;15.70;82.00;;;;;;5018265;28;20583;-74
2023/10/09 06:19:58;;;;;;;33.42;27.92;;;15.70;82.00;;;;;;5012088;28;20072;-72
2023/10/09 06:25:11;;;;;;;30.50;26.60;;;15.70;82.10;;;;;;5020140;28;20554;-68
2023/10/09 06:32:49;;;;;;;33.85;26.35;;;15.80;82.40;;;;;;5015464;28;20041;-67
2023/10/09 06:35:16;;;;;;;34.95;26.35;;;15.80;82.40;;;;;;5016064;28;20036;-72
2023/10/09 06:45:54;;;;;;;32.05;25.85;;;15.80;82.40;;;;;;5017457;28;20107;-72
2023/10/09 06:57:12;;;;;;;34.50;28.53;;;15.90;82.60;;;;;;5016503;28;20047;-73
2023/10/09 07:01:43;;;;;;;26.95;22.52;;;16.00;82.80;;;;;;5057636;28;20094;-76
2023/10/09 07:04:45;;;;;;;30.88;23.92;;;15.90;82.60;;;;;;5059116;28;20028;-67
2023/10/09 07:07:20;;;;;;;28.45;24.15;;;16.00;82.80;;;;;;5054609;28;20305;-71
2023/10/09 07:12:42;;;;;;;30.67;23.27;;;16.10;83.00;;;;;;5056874;28;20249;-68
2023/10/09 07:20:13;;;;;;;26.73;23.05;;;16.10;82.80;;;;;;5057484;28;20034;-69
2023/10/09 07:22:52;;;;;;;28.25;21.33;;;16.20;83.00;;;;;;5053020;28;20392;-70
2023/10/09 07:25:40;;;;;;;26.15;21.55;;;16.20;82.90;;;;;;5055008;28;20029;-71
2023/10/09 07:28:18;;;;;;;30.23;22.08;;;16.20;82.80;;;;;;5060270;28;20043;-68
2023/10/09 07:30:56;;;;;;;32.88;23.27;;;16.30;83.00;;;;;;5054353;28;20060;-75
2023/10/09 07:33:30;;;;;;;27.38;22.33;;;16.30;82.90;;;;;;5057957;28;20135;-72
2023/10/09 07:35:59;;;;;;;25.20;20.63;;;16.30;82.90;;;;;;5054365;28;20164;-67
2023/10/09 07:38:28;;;;;;;27.75;21.77;;;16.40;83.00;;;;;;5057930;28;20033;-72
2023/10/09 07:40:55;;;;;;;28.02;20.88;;;16.40;83.00;;;;;;5056835;28;20051;-74
2023/10/09 07:43:28;;;;;;;22.80;19.90;;;16.50;83.70;;;;;;5051949;28;20051;-71
2023/10/09 07:48:48;;;;;;;22.73;18.77;;;16.50;83.30;;;;;;5058808;28;20834;-69
2023/10/09 07:51:16;;;;;;;24.15;19.35;;;16.60;83.00;;;;;;5048373;28;20036;-68
2023/10/09 07:53:45;;;;;;;22.48;18.55;;;16.70;83.10;;;;;;5067820;28;20903;-69
2023/10/09 07:56:19;;;;;;;21.92;16.45;;;16.70;83.00;;;;;;5051589;28;20064;-69
2023/10/09 07:58:48;;;;;;;21.88;17.33;;;16.80;83.40;;;;;;5063721;28;20071;-67
2023/10/09 08:04:14;;;;;;;18.80;15.43;;;17.10;83.90;;;;;;5050346;28;20024;-76
2023/10/09 08:06:43;;;;;;;18.55;15.60;;;17.30;84.00;;;;;;5061073;28;20402;-75
2023/10/09 08:14:20;;;;;;;19.58;15.65;;;17.70;84.00;;;;;;5054913;28;20542;-72
2023/10/09 08:16:47;;;;;;;19.80;14.43;;;17.80;83.90;;;;;;5055827;28;20563;-75
2023/10/09 08:22:30;;;;;;;23.00;15.73;;;17.80;83.60;;;;;;5036307;28;20075;-74
2023/10/09 08:24:57;;;;;;;17.05;15.15;;;17.90;83.60;;;;;;5058510;28;20483;-76
2023/10/09 08:33:00;;;;;;;20.80;14.68;;;17.90;83.30;;;;;;5056610;28;20431;-68
2023/10/09 08:35:31;;;;;;;17.95;14.80;;;18.00;83.30;;;;;;5056021;28;20040;-74
2023/10/09 08:38:07;;;;;;;19.70;15.27;;;18.10;83.30;;;;;;5049785;28;20029;-72
2023/10/09 08:40:38;;;;;;;19.02;15.30;;;18.10;83.20;;;;;;5059275;28;20043;-68
2023/10/09 08:43:14;;;;;;;21.83;15.80;;;18.10;83.10;;;;;;5056170;28;20036;-72
2023/10/09 08:45:46;;;;;;;21.88;14.65;;;18.20;83.10;;;;;;5057336;28;20093;-71
2023/10/09 08:48:15;;;;;;;19.37;13.83;;;18.30;83.10;;;;;;5062747;28;20492;-72
2023/10/09 08:50:43;;;;;;;18.67;13.20;;;18.30;82.90;;;;;;5058411;28;20288;-69
2023/10/09 08:53:11;;;;;;;15.10;13.50;;;18.40;82.80;;;;;;5053444;28;20261;-70
2023/10/09 08:55:41;;;;;;;16.45;12.55;;;18.50;82.70;;;;;;5056867;28;20041;-74
2023/10/09 08:58:30;;;;;;;15.65;12.32;;;18.50;82.50;;;;;;5066049;28;20435;-73
2023/10/09 09:00:58;;;;;;;16.15;12.52;;;18.70;82.60;;;;;;5058658;28;20052;-72
2023/10/09 09:03:25;;;;;;;14.30;12.23;;;18.70;82.40;;;;;;5060049;28;20117;-72
2023/10/09 09:06:02;;;;;;;16.77;12.23;;;18.80;82.40;;;;;;5047531;28;20041;-73
2023/10/09 09:08:30;;;;;;;13.68;11.32;;;18.80;82.10;;;;;;5068723;28;20039;-71
2023/10/09 09:11:23;;;;;;;16.05;13.02;;;18.90;82.10;;;;;;5076530;28;20037;-71
2023/10/09 09:14:04;;;;;;;14.10;10.52;;;19.00;82.00;;;;;;5070866;28;20322;-68
2023/10/09 09:16:33;;;;;;;14.82;12.50;;;19.00;81.80;;;;;;5069426;28;20055;-68
2023/10/09 09:21:44;;;;;;;11.77;10.55;;;19.10;81.60;;;;;;5047704;28;20039;-70
2023/10/09 09:26:59;;;;;;;12.98;9.98;;;19.10;81.40;;;;;;5055033;28;20052;-66
2023/10/09 09:29:38;;;;;;;15.73;11.38;;;19.20;81.50;;;;;;5060534;28;20033;-69
2023/10/09 09:32:19;;;;;;;15.82;11.23;;;19.30;81.40;;;;;;5059731;28;20028;-69
2023/10/09 09:35:00;;;;;;;11.82;10.10;;;19.30;81.30;;;;;;5054310;28;20097;-70
2023/10/09 09:37:28;;;;;;;12.98;11.07;;;19.40;81.20;;;;;;5053875;28;20045;-73
2023/10/09 09:40:00;;;;;;;12.07;10.88;;;19.40;81.00;;;;;;5057479;28;20025;-68
2023/10/09 09:42:32;;;;;;;11.73;9.40;;;19.40;80.80;;;;;;5058632;28;20116;-72
2023/10/09 09:45:01;;;;;;;12.70;10.32;;;19.50;80.90;;;;;;5062297;28;20037;-68
2023/10/09 09:47:27;;;;;;;12.40;9.95;;;19.50;80.70;;;;;;5054752;28;20056;-70
2023/10/09 09:49:59;;;;;;;10.18;9.00;;;19.50;80.60;;;;;;5051637;28;20510;-69
2023/10/09 09:52:37;;;;;;;12.10;9.27;;;19.60;80.60;;;;;;5058138;28;20036;-67
2023/10/09 09:55:16;;;;;;;12.70;11.30;;;19.60;81.00;;;;;;5056912;28;20036;-68
2023/10/09 09:57:45;;;;;;;12.18;9.75;;;19.70;80.40;;;;;;5051650;28;20063;-68
2023/10/09 10:00:27;;;;;;;10.60;9.43;;;19.80;80.30;;;;;;5060729;28;20159;-68
2023/10/09 10:03:01;;;;;;;11.40;9.88;;;19.90;80.10;;;;;;5054478;28;20537;-68
2023/10/09 10:05:29;;;;;;;;;;;20.00;80.60;;;;;;5053031;28;20523;-74
2023/10/09 10:08:00;;;;;;;11.95;9.73;;;20.10;80.50;;;;;;5053958;28;20462;-67
2023/10/09 10:10:55;;;;;;;10.57;9.48;;;20.20;79.90;;;;;;5055230;28;20024;-72
2023/10/09 10:13:40;;;;;;;12.05;9.00;;;20.30;79.70;;;;;;5060598;28;20028;-74
2023/10/09 10:16:19;;;;;;;12.32;9.32;;;20.40;79.60;;;;;;5043892;28;20110;-72
2023/10/09 10:19:14;;;;;;;14.10;8.68;;;20.40;79.30;;;;;;5049875;28;20034;-68
2023/10/09 10:21:41;;;;;;;11.93;9.40;;;20.50;79.10;;;;;;5051068;28;20066;-72
2023/10/09 10:24:32;;;;;;;10.07;8.95;;;20.60;79.00;;;;;;5054786;28;20028;-67
2023/10/09 10:27:18;;;;;;;15.27;8.48;;;20.80;78.90;;;;;;5048310;28;20519;-68
2023/10/09 10:29:46;;;;;;;9.95;8.52;;;21.00;78.80;;;;;;5056221;28;20037;-69
2023/10/09 10:32:12;;;;;;;10.90;8.65;;;21.20;78.80;;;;;;5056859;28;20040;-72
2023/10/09 10:35:06;;;;;;;11.32;8.60;;;21.20;78.30;;;;;;5055698;28;20033;-71
2023/10/09 10:37:54;;;;;;;11.30;8.50;;;21.30;78.10;;;;;;5062552;28;20028;-70
2023/10/09 10:43:33;;;;;;;7.90;6.57;;;21.30;78.00;;;;;;5035461;28;20041;-71
2023/10/09 10:46:04;;;;;;;9.75;6.47;;;21.20;77.80;;;;;;5035695;28;20029;-73
2023/10/09 10:48:37;;;;;;;10.77;6.60;;;21.20;77.80;;;;;;5044242;28;20542;-69
2023/10/09 10:51:11;;;;;;;;;;;21.10;78.00;;;;;;5052506;28;20035;-71
2023/10/09 10:53:47;;;;;;;8.20;6.53;;;21.10;77.90;;;;;;5050277;28;19965;-69
2023/10/09 10:58:53;;;;;;;7.88;5.47;;;20.90;77.80;;;;;;5052120;28;20166;-69
2023/10/09 11:01:25;;;;;;;6.80;6.10;;;20.90;77.90;;;;;;5049044;28;20068;-71
2023/10/09 11:03:55;;;;;;;6.88;5.57;;;20.80;77.80;;;;;;5057177;28;20029;-68
2023/10/09 11:06:38;;;;;;;6.80;5.88;;;20.80;77.80;;;;;;5059149;28;20036;-70
2023/10/09 11:09:09;;;;;;;7.75;6.82;;;20.80;77.80;;;;;;5049760;28;20152;-73
2023/10/09 11:11:46;;;;;;;7.00;6.00;;;20.80;77.80;;;;;;5052490;28;20036;-68
2023/10/09 11:14:42;;;;;;;8.77;6.40;;;20.80;77.80;;;;;;5053693;28;20322;-72
2023/10/09 11:17:23;;;;;;;8.15;6.40;;;20.80;77.80;;;;;;5054531;28;20037;-72
2023/10/09 11:19:52;;;;;;;9.65;5.45;;;20.80;77.80;;;;;;5053147;28;20051;-70
2023/10/09 11:22:28;;;;;;;6.13;5.30;;;20.80;77.70;;;;;;5050667;28;20071;-74
2023/10/09 11:25:12;;;;;;;6.65;5.70;;;20.80;77.70;;;;;;5058456;28;20554;-71
2023/10/09 11:27:50;;;;;;;7.20;5.30;;;20.80;77.60;;;;;;5046242;28;20050;-74
2023/10/09 11:30:29;;;;;;;5.43;4.93;;;20.80;77.60;;;;;;5052355;28;20051;-70
2023/10/09 11:33:04;;;;;;;6.20;5.40;;;20.80;77.60;;;;;;5059563;28;20474;-71
2023/10/09 11:35:34;;;;;;;7.45;5.50;;;20.80;77.60;;;;;;5058532;28;20063;-75
2023/10/09 11:38:01;;;;;;;6.15;5.55;;;20.80;77.50;;;;;;5053214;28;20480;-75
2023/10/09 11:43:16;;;;;;;5.68;5.18;;;20.90;77.60;;;;;;5059232;28;20590;-74
2023/10/09 11:45:54;;;;;;;5.85;5.35;;;20.90;77.50;;;;;;5059142;28;20055;-74
2023/10/09 11:48:24;;;;;;;7.43;5.20;;;20.90;77.40;;;;;;5049990;28;20107;-75
2023/10/09 11:53:33;;;;;;;6.70;4.70;;;20.90;77.80;;;;;;5059486;28;20058;-74
2023/10/09 11:56:00;;;;;;;5.57;4.85;;;20.90;77.20;;;;;;5050536;28;20039;-68
2023/10/09 11:58:26;;;;;;;5.72;4.80;;;21.00;77.40;;;;;;5052207;28;20086;-70
2023/10/09 12:01:03;;;;;;;6.05;5.10;;;21.00;77.30;;;;;;5051377;28;20028;-67
2023/10/09 12:03:30;;;;;;;6.72;5.78;;;21.00;77.30;;;;;;5060337;28;20392;-72
2023/10/09 12:05:57;;;;;;;7.57;5.07;;;21.00;77.30;;;;;;5049447;28;20100;-73
2023/10/09 12:08:26;;;;;;;7.10;5.85;;;21.00;77.20;;;;;;5053494;28;20033;-71
2023/10/09 12:10:57;;;;;;;5.40;4.40;;;21.00;77.20;;;;;;5048464;28;20507;-72
2023/10/09 12:13:24;;;;;;;5.72;4.78;;;21.00;77.20;;;;;;5053350;28;20037;-72
2023/10/09 12:15:55;;;;;;;5.65;4.65;;;21.10;77.30;;;;;;5046153;28;20082;-74
2023/10/09 12:18:23;;;;;;;5.55;4.40;;;21.10;77.20;;;;;;5052485;28;20037;-73
2023/10/09 12:20:50;;;;;;;5.18;4.63;;;21.20;77.30;;;;;;5050491;28;20499;-70
2023/10/09 12:23:21;;;;;;;5.78;4.93;;;21.20;77.30;;;;;;5058719;28;20037;-68
2023/10/09 12:25:49;;;;;;;8.68;4.93;;;21.20;77.20;;;;;;5054898;28;20505;-70
2023/10/09 12:28:20;;;;;;;5.20;4.70;;;21.20;77.10;;;;;;5056583;28;20035;-73
2023/10/09 12:30:52;;;;;;;5.28;4.78;;;21.20;77.00;;;;;;5054794;28;20025;-70
2023/10/09 12:33:20;;;;;;;4.63;4.20;;;21.30;77.10;;;;;;5055162;28;20571;-73
2023/10/09 12:35:47;;;;;;;6.40;4.72;;;21.30;77.00;;;;;;5034862;28;20074;-71
2023/10/09 12:38:18;;;;;;;5.70;4.53;;;21.30;77.00;;;;;;5057089;28;20052;-73
2023/10/09 12:40:51;;;;;;;7.18;4.35;;;21.40;77.00;;;;;;5058625;28;20082;-71
2023/10/09 12:43:22;;;;;;;5.22;4.70;;;21.40;77.00;;;;;;5057355;28;20053;-73
2023/10/09 12:45:48;;;;;;;4.93;3.60;;;21.40;76.90;;;;;;5050150;28;20036;-72
2023/10/09 12:48:14;;;;;;;6.97;4.93;;;21.50;77.00;;;;;;5054058;28;20051;-67
2023/10/09 12:50:46;;;;;;;5.63;4.55;;;21.50;76.90;;;;;;5054045;28;20381;-72
2023/10/09 12:53:17;;;;;;;6.43;4.43;;;21.60;77.00;;;;;;5051349;28;20041;-71
2023/10/09 12:55:44;;;;;;;9.40;4.45;;;21.60;76.90;;;;;;5054316;28;20028;-71
2023/10/09 12:58:15;;;;;;;8.68;4.97;;;21.70;76.90;;;;;;5053664;28;20029;-74
2023/10/09 13:00:48;;;;;;;4.95;4.45;;;21.70;77.30;;;;;;5058382;28;20391;-68
2023/10/09 13:03:16;;;;;;;6.35;4.90;;;21.80;76.80;;;;;;5056845;28;20025;-70
2023/10/09 13:05:51;;;;;;;7.25;4.50;;;21.90;76.70;;;;;;5052454;28;20037;-72
2023/10/09 13:08:21;;;;;;;5.13;4.40;;;21.90;76.50;;;;;;5065432;28;20029;-68
2023/10/09 13:10:58;;;;;;;4.60;3.80;;;22.00;76.40;;;;;;5075522;28;20033;-70
2023/10/09 13:13:39;;;;;;;5.50;4.00;;;22.10;76.50;;;;;;5049231;28;20047;-68
2023/10/09 13:16:22;;;;;;;5.78;3.60;;;22.20;76.40;;;;;;5064592;28;20032;-71
2023/10/09 13:18:56;;;;;;;6.68;4.50;;;22.30;76.30;;;;;;5059171;28;20124;-73
2023/10/09 13:21:24;;;;;;;4.85;4.38;;;22.40;76.20;;;;;;5056503;28;20029;-67
2023/10/09 13:23:52;;;;;;;4.72;4.25;;;22.50;76.20;;;;;;5058931;28;20043;-67
2023/10/09 13:26:19;;;;;;;4.32;3.92;;;22.50;76.00;;;;;;5058473;28;20418;-69
2023/10/09 13:28:46;;;;;;;5.40;3.85;;;22.60;75.90;;;;;;5055628;28;20761;-70
2023/10/09 13:31:17;;;;;;;5.38;4.40;;;22.70;75.80;;;;;;5056291;28;20484;-70
2023/10/09 13:33:44;;;;;;;5.70;3.95;;;22.80;75.60;;;;;;5053787;28;20029;-68
2023/10/09 13:36:19;;;;;;;5.07;3.58;;;22.90;75.50;;;;;;5051786;28;20036;-67
2023/10/09 13:38:46;;;;;;;4.23;3.83;;;22.90;75.30;;;;;;5058799;28;20028;-67
2023/10/09 13:41:12;;;;;;;3.30;3.00;;;23.10;75.40;;;;;;5055176;28;20274;-73
2023/10/09 13:43:40;;;;;;;6.88;3.75;;;23.20;75.30;;;;;;5057148;28;20035;-69
2023/10/09 13:46:11;;;;;;;3.63;2.83;;;23.30;75.20;;;;;;5053023;28;20333;-69
2023/10/09 13:48:41;;;;;;;4.55;2.97;;;23.40;75.10;;;;;;5055301;28;20035;-71
2023/10/09 13:51:13;;;;;;;3.03;2.55;;;23.50;74.80;;;;;;5058145;28;20025;-75
2023/10/09 13:53:44;;;;;;;4.28;3.25;;;23.60;74.70;;;;;;5059675;28;20062;-75
2023/10/09 13:56:19;;;;;;;5.32;3.00;;;23.70;74.60;;;;;;5041964;28;20032;-75
2023/10/09 13:58:54;;;;;;;4.07;3.30;;;23.80;74.60;;;;;;5057723;28;20562;-75
2023/10/09 14:01:27;;;;;;;3.03;2.50;;;23.80;74.50;;;;;;5061228;28;20040;-75
2023/10/09 14:03:58;;;;;;;3.60;2.97;;;23.80;74.40;;;;;;5059389;28;20058;-75
2023/10/09 14:06:32;;;;;;;2.97;2.67;;;23.90;74.50;;;;;;5057363;28;20048;-75
2023/10/09 14:09:04;;;;;;;4.50;2.92;;;23.90;74.40;;;;;;5057214;28;20068;-76
2023/10/09 14:11:44;;;;;;;2.78;2.58;;;23.90;74.40;;;;;;5059029;28;20077;-75
2023/10/09 14:14:11;;;;;;;3.05;2.75;;;23.90;74.20;;;;;;5055233;28;20699;-75
2023/10/09 14:16:42;;;;;;;3.45;2.05;;;23.90;74.10;;;;;;5054562;28;20039;-75
2023/10/09 14:19:13;;;;;;;3.28;2.78;;;23.90;74.00;;;;;;5056034;28;20063;-75
2023/10/09 14:21:49;;;;;;;4.55;3.10;;;24.00;74.30;;;;;;5056638;28;20528;-75
2023/10/09 14:24:19;;;;;;;3.40;3.10;;;24.00;74.00;;;;;;5058716;28;20036;-75
2023/10/09 14:26:48;;;;;;;5.05;3.30;;;24.00;73.90;;;;;;5055185;28;20322;-75
2023/10/09 14:29:16;;;;;;;3.88;2.65;;;23.90;73.60;;;;;;5056874;28;20029;-75
2023/10/09 14:31:49;;;;;;;3.05;2.67;;;23.90;73.60;;;;;;5038159;28;20036;-75
2023/10/09 14:34:15;;;;;;;3.22;2.63;;;23.90;73.60;;;;;;5058426;28;20024;-75
2023/10/09 14:36:43;;;;;;;3.10;2.60;;;23.90;73.60;;;;;;5056365;28;20048;-76
2023/10/09 14:39:18;;;;;;;3.42;2.53;;;23.90;73.60;;;;;;5055009;28;20037;-75
2023/10/09 14:41:45;;;;;;;6.10;2.97;;;23.90;73.50;;;;;;5052506;28;20025;-76
2023/10/09 14:44:16;;;;;;;5.22;3.17;;;23.90;73.50;;;;;;5061390;28;20043;-76
2023/10/09 14:46:43;;;;;;;4.72;3.00;;;23.80;73.30;;;;;;5048541;28;20041;-75
2023/10/09 14:49:15;;;;;;;4.82;2.67;;;23.80;73.30;;;;;;5052510;28;20043;-76
2023/10/09 14:51:44;;;;;;;4.07;2.88;;;23.80;73.40;;;;;;5060259;28;20439;-76
2023/10/09 14:54:15;;;;;;;4.10;2.90;;;23.80;73.40;;;;;;5056956;28;20029;-76
2023/10/09 14:56:42;;;;;;;3.67;3.03;;;23.70;73.20;;;;;;5059017;28;20392;-76
2023/10/09 14:59:10;;;;;;;3.40;3.10;;;23.70;73.00;;;;;;5055466;28;20451;-76
2023/10/09 15:01:37;;;;;;;3.08;2.72;;;23.70;73.60;;;;;;5058793;28;20043;-75
2023/10/09 15:04:04;;;;;;;3.63;2.65;;;23.70;73.10;;;;;;5057640;28;20621;-75
2023/10/09 15:06:30;;;;;;;4.07;2.65;;;23.70;73.10;;;;;;5055337;28;20033;-75
2023/10/09 15:08:58;;;;;;;4.40;3.65;;;23.60;73.00;;;;;;5057477;28;20054;-75
2023/10/09 15:11:38;;;;;;;3.70;2.78;;;23.60;72.90;;;;;;5055970;28;20093;-75
2023/10/09 15:14:06;;;;;;;3.28;2.58;;;23.60;73.00;;;;;;5056798;28;20028;-75
2023/10/09 15:16:33;;;;;;;4.78;2.80;;;23.60;73.20;;;;;;5051212;28;20594;-75
2023/10/09 15:19:02;;;;;;;3.42;2.67;;;23.60;73.30;;;;;;5054466;28;20043;-75
2023/10/09 15:21:32;;;;;;;3.80;3.20;;;23.60;73.40;;;;;;5051543;28;20152;-75
2023/10/09 15:24:01;;;;;;;5.15;3.10;;;23.60;73.30;;;;;;5050653;28;20348;-75
2023/10/09 15:26:32;;;;;;;5.32;2.97;;;23.60;73.30;;;;;;5051958;28;20052;-75
2023/10/09 15:29:06;;;;;;;3.53;2.83;;;23.60;73.30;;;;;;5049914;28;20472;-75
2023/10/09 15:31:34;;;;;;;2.85;2.53;;;23.70;73.40;;;;;;5050162;28;20658;-75
2023/10/09 15:34:08;;;;;;;3.65;2.95;;;23.70;73.30;;;;;;5056507;28;20029;-76
2023/10/09 15:36:35;;;;;;;3.72;3.15;;;23.80;73.40;;;;;;5053233;28;20221;-75
2023/10/09 15:39:19;;;;;;;5.60;3.15;;;23.90;73.40;;;;;;5049721;28;20044;-76
2023/10/09 15:41:48;;;;;;;3.13;2.65;;;23.90;73.30;;;;;;5054697;28;20124;-75
2023/10/09 15:44:16;;;;;;;3.28;2.80;;;24.00;73.40;;;;;;5054773;28;20032;-75
2023/10/09 15:46:45;;;;;;;5.05;2.70;;;24.00;73.30;;;;;;5054556;28;20401;-75
2023/10/09 15:49:13;;;;;;;3.88;3.10;;;24.10;73.40;;;;;;5056181;28;20035;-74